createdAt,value
2023-10-02T00:02:34.558Z,9.79
2023-10-02T00:05:07.403Z,9.78
2023-10-02T00:07:37.084Z,9.78
2023-10-02T00:10:07.446Z,9.76
2023-10-02T00:12:36.358Z,9.81
2023-10-02T00:15:13.591Z,9.78
2023-10-02T00:17:46.220Z,9.76
2023-10-02T00:20:22.939Z,9.76
2023-10-02T00:22:52.311Z,9.73
2023-10-02T00:25:28.758Z,9.71
2023-10-02T00:28:01.223Z,9.70
2023-10-02T00:30:37.857Z,9.70
2023-10-02T00:33:13.067Z,9.68
2023-10-02T00:35:52.902Z,9.67
2023-10-02T00:38:21.712Z,9.61
2023-10-02T00:40:50.118Z,9.54
2023-10-02T00:43:41.577Z,9.51
2023-10-02T00:46:24.774Z,9.55
2023-10-02T00:48:54.329Z,9.60
2023-10-02T00:51:23.143Z,9.61
2023-10-02T00:53:55.214Z,9.60
2023-10-02T00:56:25.267Z,9.67
2023-10-02T00:59:00.247Z,9.68
2023-10-02T01:01:31.058Z,9.69
2023-10-02T01:04:12.684Z,9.68
2023-10-02T01:07:06.070Z,9.66
2023-10-02T01:09:36.334Z,9.64
2023-10-02T01:12:07.237Z,9.67
2023-10-02T01:14:52.320Z,9.64
2023-10-02T01:17:23.503Z,9.62
2023-10-02T01:19:59.109Z,9.55
2023-10-02T01:22:29.862Z,9.44
2023-10-02T01:25:15.624Z,9.39
2023-10-02T01:27:48.838Z,9.36
2023-10-02T01:30:18.437Z,9.36
2023-10-02T01:33:13.343Z,9.33
2023-10-02T01:35:50.746Z,9.25
2023-10-02T01:38:31.025Z,9.19
2023-10-02T01:41:06.115Z,9.15
2023-10-02T01:43:40.844Z,9.10
2023-10-02T01:46:10.141Z,9.09
2023-10-02T01:48:41.736Z,9.11
2023-10-02T01:51:27.568Z,9.07
2023-10-02T01:53:58.773Z,9.15
2023-10-02T01:56:30.853Z,9.21
2023-10-02T01:59:12.136Z,9.28
2023-10-02T02:01:54.165Z,9.38
2023-10-02T02:04:26.016Z,9.50
2023-10-02T02:06:56.443Z,9.58
2023-10-02T02:09:26.348Z,9.66
2023-10-02T02:12:17.204Z,9.75
2023-10-02T02:14:53.033Z,9.84
2023-10-02T02:17:26.715Z,9.95
2023-10-02T02:19:55.955Z,10.05
2023-10-02T02:22:27.574Z,10.12
2023-10-02T02:24:59.850Z,10.16
2023-10-02T02:27:30.364Z,10.22
2023-10-02T02:29:59.442Z,10.26
2023-10-02T02:32:46.245Z,10.31
2023-10-02T02:35:16.921Z,10.37
2023-10-02T02:37:45.934Z,10.39
2023-10-02T02:40:27.873Z,10.43
2023-10-02T02:43:00.024Z,10.48
2023-10-02T02:45:30.825Z,10.52
2023-10-02T02:48:06.126Z,10.56
2023-10-02T02:50:37.097Z,10.60
2023-10-02T02:53:23.420Z,10.63
2023-10-02T02:56:16.336Z,10.66
2023-10-02T02:58:49.731Z,10.69
2023-10-02T03:01:24.518Z,10.74
2023-10-02T03:03:53.948Z,10.77
2023-10-02T03:06:24.773Z,10.80
2023-10-02T03:08:54.177Z,10.84
2023-10-02T03:11:30.407Z,10.85
2023-10-02T03:14:13.901Z,10.85
2023-10-02T03:16:46.409Z,10.83
2023-10-02T03:19:17.764Z,10.83
2023-10-02T03:21:48.704Z,10.85
2023-10-02T03:24:20.692Z,10.87
2023-10-02T03:26:54.847Z,10.89
2023-10-02T03:29:25.504Z,10.91
2023-10-02T03:31:54.521Z,10.93
2023-10-02T03:34:29.807Z,10.95
2023-10-02T03:37:02.671Z,10.97
2023-10-02T03:39:49.340Z,10.98
2023-10-02T03:42:23.642Z,10.99
2023-10-02T03:44:55.793Z,11.00
2023-10-02T03:47:25.128Z,11.00
2023-10-02T03:50:01.922Z,11.02
2023-10-02T03:52:32.185Z,11.00
2023-10-02T03:55:15.706Z,10.98
2023-10-02T03:57:52.385Z,10.98
2023-10-02T04:00:27.270Z,10.95
2023-10-02T04:02:58.465Z,10.95
2023-10-02T04:05:35.375Z,10.92
2023-10-02T04:08:23.564Z,10.89
2023-10-02T04:10:57.632Z,10.87
2023-10-02T04:13:28.844Z,10.81
2023-10-02T04:16:13.019Z,10.69
2023-10-02T04:19:00.307Z,10.54
2023-10-02T04:21:30.367Z,10.50
2023-10-02T04:23:59.267Z,10.44
2023-10-02T04:26:30.514Z,10.36
2023-10-02T04:29:14.823Z,10.30
2023-10-02T04:31:46.127Z,10.26
2023-10-02T04:34:25.213Z,10.27
2023-10-02T04:36:54.590Z,10.29
2023-10-02T04:39:41.016Z,10.25
2023-10-02T04:42:16.026Z,10.21
2023-10-02T04:44:48.844Z,10.25
2023-10-02T04:47:20.685Z,10.31
2023-10-02T04:50:08.274Z,10.38
2023-10-02T04:52:59.070Z,10.45
2023-10-02T04:55:32.790Z,10.51
2023-10-02T04:58:05.875Z,10.55
2023-10-02T05:00:37.566Z,10.59
2023-10-02T05:03:11.285Z,10.61
2023-10-02T05:05:43.551Z,10.56
2023-10-02T05:08:20.421Z,10.54
2023-10-02T05:10:51.406Z,10.57
2023-10-02T05:13:40.333Z,10.65
2023-10-02T05:16:12.583Z,10.72
2023-10-02T05:18:48.897Z,10.80
2023-10-02T05:21:18.965Z,10.92
2023-10-02T05:23:58.201Z,11.01
2023-10-02T05:26:35.956Z,11.10
2023-10-02T05:29:09.772Z,11.20
2023-10-02T05:31:42.717Z,11.27
2023-10-02T05:34:23.284Z,11.30
2023-10-02T05:37:14.073Z,11.37
2023-10-02T05:39:43.744Z,11.45
2023-10-02T05:42:15.257Z,11.56
2023-10-02T05:44:45.551Z,11.68
2023-10-02T05:47:17.796Z,11.81
2023-10-02T05:49:51.083Z,11.86
2023-10-02T05:52:22.128Z,11.96
2023-10-02T05:54:55.482Z,11.93
2023-10-02T05:57:30.207Z,11.92
2023-10-02T06:00:01.786Z,11.92
2023-10-02T06:02:34.063Z,11.84
2023-10-02T06:05:13.487Z,11.84
2023-10-02T06:07:45.211Z,11.85
2023-10-02T06:10:27.175Z,11.86
2023-10-02T06:13:04.935Z,11.91
2023-10-02T06:15:48.677Z,11.91
2023-10-02T06:18:26.362Z,11.96
2023-10-02T06:21:03.268Z,12.00
2023-10-02T06:23:39.201Z,12.03
2023-10-02T06:26:11.316Z,12.09
2023-10-02T06:28:40.928Z,12.12
2023-10-02T06:31:10.195Z,12.23
2023-10-02T06:33:39.317Z,12.34
2023-10-02T06:36:10.631Z,12.39
2023-10-02T06:38:39.546Z,12.33
2023-10-02T06:41:14.595Z,12.33
2023-10-02T06:43:43.369Z,12.40
2023-10-02T06:46:15.325Z,12.55
2023-10-02T06:48:45.644Z,12.64
2023-10-02T06:51:15.819Z,12.74
2023-10-02T06:53:45.139Z,12.79
2023-10-02T06:56:14.873Z,12.95
2023-10-02T06:58:58.777Z,13.21
2023-10-02T07:01:29.591Z,13.42
2023-10-02T07:04:10.767Z,13.62
2023-10-02T07:06:41.405Z,13.64
2023-10-02T07:09:14.060Z,13.59
2023-10-02T07:11:44.589Z,13.51
2023-10-02T07:14:13.985Z,13.44
2023-10-02T07:16:43.876Z,13.56
2023-10-02T07:19:13.443Z,13.63
2023-10-02T07:21:44.210Z,13.78
2023-10-02T07:24:29.665Z,13.99
2023-10-02T07:27:00.794Z,13.99
2023-10-02T07:29:40.610Z,14.27
2023-10-02T07:32:12.449Z,14.09
2023-10-02T07:34:40.896Z,14.17
2023-10-02T07:37:14.694Z,14.08
2023-10-02T07:39:43.884Z,14.04
2023-10-02T07:42:13.087Z,14.18
2023-10-02T07:44:42.735Z,14.34
2023-10-02T07:47:19.534Z,14.43
2023-10-02T07:49:51.305Z,14.71
2023-10-02T07:52:39.642Z,15.18
2023-10-02T07:55:12.389Z,16.02
2023-10-02T07:57:41.499Z,16.48
2023-10-02T08:00:31.842Z,16.74
2023-10-02T08:03:03.972Z,16.94
2023-10-02T08:05:35.710Z,16.97
2023-10-02T08:08:10.720Z,17.01
2023-10-02T08:10:51.594Z,16.90
2023-10-02T08:13:33.765Z,16.44
2023-10-02T08:16:06.124Z,16.81
2023-10-02T08:18:35.070Z,17.42
2023-10-02T08:21:05.461Z,17.52
2023-10-02T08:23:35.758Z,17.84
2023-10-02T08:26:25.330Z,17.65
2023-10-02T08:28:55.263Z,18.13
2023-10-02T08:31:29.326Z,17.79
2023-10-02T08:34:11.455Z,18.12
2023-10-02T08:36:43.575Z,18.07
2023-10-02T08:41:52.398Z,18.69
2023-10-02T08:44:24.005Z,18.83
2023-10-02T08:46:56.782Z,18.99
2023-10-02T08:49:27.712Z,18.64
2023-10-02T08:51:58.765Z,18.88
2023-10-02T08:54:30.688Z,18.82
2023-10-02T08:57:08.340Z,18.65
2023-10-02T08:59:43.965Z,18.84
2023-10-02T09:02:15.930Z,18.97
2023-10-02T09:05:11.391Z,19.27
2023-10-02T09:08:02.676Z,19.12
2023-10-02T09:10:42.567Z,19.51
2023-10-02T09:13:16.048Z,20.08
2023-10-02T09:15:48.180Z,20.19
2023-10-02T09:18:35.734Z,20.47
2023-10-02T09:21:15.626Z,20.99
2023-10-02T09:23:53.330Z,21.63
2023-10-02T09:26:26.781Z,22.29
2023-10-02T09:29:02.892Z,21.96
2023-10-02T09:31:34.680Z,22.75
2023-10-02T09:34:22.841Z,24.05
2023-10-02T09:37:42.988Z,23.75
2023-10-02T09:40:16.091Z,25.68
2023-10-02T09:42:49.861Z,27.02
2023-10-02T09:45:32.739Z,26.92
2023-10-02T09:48:07.361Z,26.52
2023-10-02T09:50:42.602Z,26.06
2023-10-02T09:53:12.563Z,26.18
2023-10-02T09:55:57.708Z,27.43
2023-10-02T09:58:38.847Z,28.02
2023-10-02T10:01:38.917Z,28.07
2023-10-02T10:04:21.688Z,25.25
2023-10-02T10:07:08.375Z,25.61
2023-10-02T10:09:51.118Z,27.12
2023-10-02T10:12:33.461Z,25.16
2023-10-02T10:15:25.983Z,25.62
2023-10-02T10:17:58.150Z,26.59
2023-10-02T10:20:29.066Z,27.55
2023-10-02T10:22:58.006Z,27.30
2023-10-02T10:25:46.554Z,27.21
2023-10-02T10:28:29.066Z,26.12
2023-10-02T10:31:03.584Z,25.90
2023-10-02T10:33:36.888Z,26.73
2023-10-02T10:36:43.371Z,27.29
2023-10-02T10:39:53.580Z,26.24
2023-10-02T10:42:25.401Z,28.21
2023-10-02T10:44:58.580Z,27.94
2023-10-02T10:47:41.143Z,29.13
2023-10-02T10:50:23.995Z,30.33
2023-10-02T10:53:02.641Z,29.40
2023-10-02T10:55:34.959Z,30.59
2023-10-02T11:00:40.681Z,29.98
2023-10-02T11:03:13.139Z,30.74
2023-10-02T11:05:42.521Z,31.04
2023-10-02T11:08:26.816Z,30.52
2023-10-02T11:11:07.920Z,27.40
2023-10-02T11:13:54.564Z,27.04
2023-10-02T11:16:35.788Z,26.01
2023-10-02T11:19:36.384Z,27.25
2023-10-02T11:22:16.374Z,28.01
2023-10-02T11:24:49.837Z,29.61
2023-10-02T11:27:19.497Z,30.49
2023-10-02T11:30:03.023Z,30.46
2023-10-02T11:33:01.644Z,30.18
2023-10-02T11:35:31.358Z,30.58
2023-10-02T11:38:02.645Z,29.80
2023-10-02T11:40:34.129Z,27.46
2023-10-02T11:43:03.501Z,28.15
2023-10-02T11:45:34.185Z,25.66
2023-10-02T11:48:03.243Z,27.06
2023-10-02T11:50:32.250Z,27.14
2023-10-02T11:53:01.940Z,28.03
2023-10-02T11:55:30.360Z,28.74
2023-10-02T11:58:00.697Z,27.49
2023-10-02T12:00:29.762Z,27.81
2023-10-02T12:03:01.224Z,27.36
2023-10-02T12:05:31.705Z,27.32
2023-10-02T12:08:01.073Z,27.89
2023-10-02T12:10:30.185Z,29.73
2023-10-02T12:13:03.484Z,29.22
2023-10-02T12:15:32.515Z,25.83
2023-10-02T12:18:02.417Z,26.91
2023-10-02T12:20:32.145Z,27.88
2023-10-02T12:23:01.848Z,29.00
2023-10-02T12:25:30.925Z,30.63
2023-10-02T12:28:02.064Z,31.54
2023-10-02T12:30:36.021Z,30.30
2023-10-02T12:33:05.945Z,30.86
2023-10-02T12:35:35.445Z,26.81
2023-10-02T12:38:04.770Z,23.80
2023-10-02T12:40:35.404Z,24.68
2023-10-02T12:43:06.538Z,24.80
2023-10-02T12:45:37.742Z,25.04
2023-10-02T12:48:08.775Z,24.30
2023-10-02T12:50:41.406Z,25.02
2023-10-02T12:53:12.467Z,25.80
2023-10-02T12:55:44.673Z,25.51
2023-10-02T12:58:15.650Z,26.44
2023-10-02T13:00:44.569Z,27.88
2023-10-02T13:03:13.562Z,28.66
2023-10-02T13:05:44.204Z,28.75
2023-10-02T13:08:13.217Z,28.86
2023-10-02T13:10:43.358Z,29.20
2023-10-02T13:13:13.243Z,28.11
2023-10-02T13:15:43.896Z,28.47
2023-10-02T13:18:13.157Z,29.41
2023-10-02T13:20:42.125Z,28.34
2023-10-02T13:23:11.131Z,26.56
2023-10-02T13:25:41.240Z,26.18
2023-10-02T13:28:13.078Z,26.81
2023-10-02T13:30:44.059Z,26.94
2023-10-02T13:33:14.304Z,27.31
2023-10-02T13:35:45.602Z,26.65
2023-10-02T13:38:15.257Z,25.16
2023-10-02T13:40:43.755Z,25.58
2023-10-02T13:43:13.049Z,25.31
2023-10-02T13:45:47.036Z,25.01
2023-10-02T13:48:17.768Z,24.48
2023-10-02T13:51:02.492Z,23.14
2023-10-02T13:53:33.973Z,22.92
2023-10-02T13:56:10.419Z,22.73
2023-10-02T13:58:40.416Z,22.45
2023-10-02T14:01:10.662Z,22.49
2023-10-02T14:03:39.366Z,22.45
2023-10-02T14:06:09.659Z,22.32
2023-10-02T14:08:40.728Z,22.32
2023-10-02T14:11:10.191Z,22.28
2023-10-02T14:13:39.059Z,22.09
2023-10-02T14:16:08.803Z,21.63
2023-10-02T14:18:40.063Z,21.29
2023-10-02T14:21:10.804Z,21.28
2023-10-02T14:23:40.423Z,21.14
2023-10-02T14:26:10.541Z,21.08
2023-10-02T14:28:38.978Z,20.83
2023-10-02T14:31:08.995Z,20.77
2023-10-02T14:33:42.156Z,20.61
2023-10-02T14:36:11.276Z,20.65
2023-10-02T14:38:40.933Z,20.68
2023-10-02T14:41:10.702Z,20.78
2023-10-02T14:43:39.351Z,20.74
2023-10-02T14:46:08.504Z,20.72
2023-10-02T14:48:46.726Z,20.73
2023-10-02T14:51:19.195Z,20.63
2023-10-02T14:53:48.209Z,20.65
2023-10-02T14:56:17.268Z,20.66
2023-10-02T14:58:49.379Z,20.66
2023-10-02T15:01:20.413Z,20.67
2023-10-02T15:03:50.576Z,20.66
2023-10-02T15:06:20.868Z,20.59
2023-10-02T15:08:49.507Z,20.59
2023-10-02T15:11:19.628Z,20.52
2023-10-02T15:13:48.302Z,20.50
2023-10-02T15:16:17.356Z,20.49
2023-10-02T15:18:48.238Z,20.47
2023-10-02T15:21:18.399Z,20.42
2023-10-02T15:23:49.739Z,20.34
2023-10-02T15:26:20.060Z,20.28
2023-10-02T15:28:50.475Z,20.23
2023-10-02T15:31:19.971Z,20.15
2023-10-02T15:33:48.816Z,20.06
2023-10-02T15:36:18.953Z,20.02
2023-10-02T15:38:50.253Z,19.96
2023-10-02T15:41:28.824Z,19.89
2023-10-02T15:43:59.028Z,19.85
2023-10-02T15:46:28.282Z,19.82
2023-10-02T15:48:57.193Z,19.80
2023-10-02T15:51:26.601Z,19.74
2023-10-02T15:53:57.507Z,19.71
2023-10-02T15:56:28.886Z,19.67
2023-10-02T15:58:57.478Z,19.62
2023-10-02T16:01:26.948Z,19.59
2023-10-02T16:03:56.084Z,19.58
2023-10-02T16:06:25.331Z,19.56
2023-10-02T16:08:55.617Z,19.52
2023-10-02T16:11:27.439Z,19.49
2023-10-02T16:13:57.772Z,19.47
2023-10-02T16:16:26.735Z,19.44
2023-10-02T16:18:55.569Z,19.41
2023-10-02T16:21:26.724Z,19.38
2023-10-02T16:23:55.549Z,19.36
2023-10-02T16:26:26.005Z,19.32
2023-10-02T16:28:54.450Z,19.27
2023-10-02T16:31:26.881Z,19.23
2023-10-02T16:33:56.328Z,19.20
2023-10-02T16:36:26.525Z,19.20
2023-10-02T16:41:31.248Z,19.15
2023-10-02T16:44:00.325Z,19.09
2023-10-02T16:46:29.258Z,19.05
2023-10-02T16:48:58.412Z,19.03
2023-10-02T16:51:27.289Z,19.01
2023-10-02T16:53:56.816Z,18.99
2023-10-02T16:56:25.766Z,18.96
2023-10-02T16:58:55.892Z,18.97
2023-10-02T17:01:24.844Z,18.97
2023-10-02T17:03:55.387Z,18.97
2023-10-02T17:06:27.404Z,18.98
2023-10-02T17:08:56.280Z,18.93
2023-10-02T17:11:28.338Z,18.89
2023-10-02T17:13:58.271Z,18.87
2023-10-02T17:16:26.884Z,18.86
2023-10-02T17:18:55.753Z,18.84
2023-10-02T17:21:31.560Z,18.81
2023-10-02T17:24:01.673Z,18.78
2023-10-02T17:26:31.814Z,18.73
2023-10-02T17:29:04.036Z,18.67
2023-10-02T17:31:32.834Z,18.63
2023-10-02T17:34:01.792Z,18.53
2023-10-02T17:36:31.075Z,18.44
2023-10-02T17:39:01.006Z,18.38
2023-10-02T17:41:30.065Z,18.28
2023-10-02T17:43:58.917Z,18.22
2023-10-02T17:46:28.978Z,18.17
2023-10-02T17:48:57.793Z,18.13
2023-10-02T17:51:27.020Z,18.07
2023-10-02T17:53:56.395Z,18.03
2023-10-02T17:56:26.979Z,18.03
2023-10-02T17:58:56.242Z,18.02
2023-10-02T18:01:25.050Z,18.02
2023-10-02T18:03:55.463Z,18.00
2023-10-02T18:06:24.314Z,17.93
2023-10-02T18:08:53.320Z,17.87
2023-10-02T18:11:26.492Z,17.82
2023-10-02T18:13:55.058Z,17.77
2023-10-02T18:16:24.457Z,17.74
2023-10-02T18:18:54.976Z,17.74
2023-10-02T18:21:23.760Z,17.78
2023-10-02T18:23:53.021Z,17.83
2023-10-02T18:26:22.337Z,17.86
2023-10-02T18:28:50.710Z,17.85
2023-10-02T18:31:19.758Z,17.81
2023-10-02T18:33:48.757Z,17.80
2023-10-02T18:36:18.973Z,17.79
2023-10-02T18:38:47.618Z,17.79
2023-10-02T18:41:17.837Z,17.78
2023-10-02T18:43:47.130Z,17.75
2023-10-02T18:46:16.165Z,17.72
2023-10-02T18:48:45.813Z,17.71
2023-10-02T18:51:20.137Z,17.68
2023-10-02T18:53:53.203Z,17.62
2023-10-02T18:56:22.416Z,17.57
2023-10-02T18:58:50.829Z,17.56
2023-10-02T19:01:20.007Z,17.54
2023-10-02T19:03:48.988Z,17.47
2023-10-02T19:06:20.383Z,17.41
2023-10-02T19:08:49.511Z,17.37
2023-10-02T19:11:20.081Z,17.34
2023-10-02T19:13:48.548Z,17.28
2023-10-02T19:16:18.576Z,17.26
2023-10-02T19:18:47.792Z,17.23
2023-10-02T19:21:18.136Z,17.17
2023-10-02T19:23:46.986Z,17.12
2023-10-02T19:26:16.090Z,17.08
2023-10-02T19:28:44.602Z,17.06
2023-10-02T19:31:13.736Z,17.02
2023-10-02T19:33:42.762Z,16.98
2023-10-02T19:36:11.586Z,16.93
2023-10-02T19:38:44.135Z,16.89
2023-10-02T19:41:16.040Z,16.90
2023-10-02T19:43:45.264Z,16.89
2023-10-02T19:46:14.204Z,16.91
2023-10-02T19:48:43.214Z,16.93
2023-10-02T19:51:14.986Z,16.94
2023-10-02T19:53:45.752Z,16.92
2023-10-02T19:56:15.364Z,16.92
2023-10-02T19:58:43.743Z,16.87
2023-10-02T20:01:12.834Z,16.82
2023-10-02T20:03:41.722Z,16.77
2023-10-02T20:06:11.939Z,16.71
2023-10-02T20:08:42.419Z,16.66
2023-10-02T20:11:12.858Z,16.58
2023-10-02T20:13:41.905Z,16.53
2023-10-02T20:16:10.908Z,16.48
2023-10-02T20:18:39.799Z,16.47
2023-10-02T20:21:08.876Z,16.43
2023-10-02T20:23:51.531Z,16.36
2023-10-02T20:26:22.421Z,16.29
2023-10-02T20:28:50.921Z,16.24
2023-10-02T20:31:19.762Z,16.22
2023-10-02T20:33:49.402Z,16.19
2023-10-02T20:36:18.279Z,16.16
2023-10-02T20:38:47.042Z,16.13
2023-10-02T20:41:15.876Z,16.11
2023-10-02T20:43:45.561Z,16.07
2023-10-02T20:46:15.429Z,16.04
2023-10-02T20:48:44.405Z,15.99
2023-10-02T20:51:15.522Z,15.95
2023-10-02T20:53:45.121Z,15.92
2023-10-02T20:56:14.097Z,15.91
2023-10-02T20:58:42.442Z,15.90
2023-10-02T21:01:14.307Z,15.87
2023-10-02T21:03:43.998Z,15.83
2023-10-02T21:06:12.844Z,15.78
2023-10-02T21:08:41.817Z,15.70
2023-10-02T21:11:10.588Z,15.61
2023-10-02T21:13:39.035Z,15.57
2023-10-02T21:16:07.787Z,15.54
2023-10-02T21:18:39.018Z,15.52
2023-10-02T21:21:08.830Z,15.49
2023-10-02T21:23:38.908Z,15.46
2023-10-02T21:26:08.328Z,15.44
2023-10-02T21:28:37.016Z,15.44
2023-10-02T21:31:05.821Z,15.42
2023-10-02T21:33:34.738Z,15.46
2023-10-02T21:36:07.095Z,15.49
2023-10-02T21:38:36.825Z,15.46
2023-10-02T21:41:12.526Z,15.48
2023-10-02T21:43:41.682Z,15.46
2023-10-02T21:46:10.793Z,15.49
2023-10-02T21:48:40.631Z,15.48
2023-10-02T21:51:12.253Z,15.48
2023-10-02T21:53:41.845Z,15.50
2023-10-02T21:56:17.220Z,15.52
2023-10-02T21:58:45.964Z,15.53
2023-10-02T22:01:14.869Z,15.54
2023-10-02T22:03:44.142Z,15.55
2023-10-02T22:06:14.557Z,15.56
2023-10-02T22:08:43.433Z,15.57
2023-10-02T22:11:12.303Z,15.56
2023-10-02T22:13:42.069Z,15.58
2023-10-02T22:16:13.359Z,15.56
2023-10-02T22:18:43.818Z,15.57
2023-10-02T22:21:21.310Z,15.55
2023-10-02T22:23:50.927Z,15.51
2023-10-02T22:26:21.002Z,15.48
2023-10-02T22:28:49.416Z,15.48
2023-10-02T22:31:18.321Z,15.47
2023-10-02T22:33:48.524Z,15.47
2023-10-02T22:36:18.992Z,15.48
2023-10-02T22:38:47.655Z,15.45
2023-10-02T22:41:16.571Z,15.45
2023-10-02T22:43:45.003Z,15.43
2023-10-02T22:46:13.793Z,15.43
2023-10-02T22:48:42.593Z,15.40
2023-10-02T22:51:14.403Z,15.39
2023-10-02T22:53:45.434Z,15.37
2023-10-02T22:56:14.963Z,15.36
2023-10-02T22:58:43.877Z,15.33
2023-10-02T23:01:12.766Z,15.28
2023-10-02T23:03:41.703Z,15.26
2023-10-02T23:06:12.321Z,15.24
2023-10-02T23:08:41.364Z,15.22
2023-10-02T23:11:15.200Z,15.22
2023-10-02T23:13:43.623Z,15.21
2023-10-02T23:16:13.388Z,15.17
2023-10-02T23:18:42.238Z,15.15
2023-10-02T23:21:11.037Z,15.09
2023-10-02T23:23:40.921Z,15.07
2023-10-02T23:26:18.650Z,15.06
2023-10-02T23:28:47.758Z,15.02
2023-10-02T23:31:16.594Z,14.98
2023-10-02T23:33:46.113Z,14.91
2023-10-02T23:36:14.970Z,14.86
2023-10-02T23:38:44.331Z,14.86
2023-10-02T23:41:14.034Z,14.89
2023-10-02T23:43:46.269Z,14.84
2023-10-02T23:46:16.306Z,14.78
2023-10-02T23:48:46.715Z,14.75
2023-10-02T23:51:15.619Z,14.73
2023-10-02T23:53:43.409Z,14.71
2023-10-02T23:56:15.270Z,14.72
2023-10-02T23:58:45.579Z,14.68
